Terminal Aerodrome Forecast
Issued by NWS Sioux Falls, SD

Home | Current Version | Previous Version | Graphics & Text | Print | Product List | Glossary Off
Versions: 1 2 3 4 5 6 7 8 9 10 11 12 13 14 15 16 17 18 19 20 21 22 23 24 25 26

532
FTUS43 KFSD 231120
TAFFSD
TAF
KFSD 231120Z 2312/2412 17014KT P6SM BKN035
     FM231400 16014G23KT P6SM OVC015
     FM231700 16016G25KT P6SM -DZ OVC007
     FM232000 14011KT 4SM -DZ BR OVC005
     FM240300 09006KT 4SM -SHRA VCTS OVC008CB
     FM240700 09007KT 2SM -SHRA OVC005=

USA.gov is the U.S. government's official web portal to all federal, state and local government web resources and services.